createdAt,value
2023-02-02T00:01:36.217Z,9.50
2023-02-02T00:04:04.769Z,9.50
2023-02-02T00:06:34.194Z,9.50
2023-02-02T00:09:03.835Z,9.50
2023-02-02T00:11:31.823Z,9.50
2023-02-02T00:14:01.076Z,9.50
2023-02-02T00:16:45.383Z,9.50
2023-02-02T00:19:18.265Z,9.50
2023-02-02T00:21:47.087Z,9.50
2023-02-02T00:24:18.933Z,9.50
2023-02-02T00:26:48.933Z,9.50
2023-02-02T00:29:18.338Z,9.50
2023-02-02T00:31:48.063Z,9.50
2023-02-02T00:34:17.044Z,9.50
2023-02-02T00:36:45.889Z,9.50
2023-02-02T00:39:20.151Z,9.50
2023-02-02T00:41:48.750Z,9.60
2023-02-02T00:44:34.216Z,9.60
2023-02-02T00:47:04.474Z,9.40
2023-02-02T00:49:33.130Z,9.50
2023-02-02T00:52:01.327Z,9.50
2023-02-02T00:54:29.817Z,9.50
2023-02-02T00:56:57.971Z,9.50
2023-02-02T00:59:26.524Z,9.60
2023-02-02T01:01:54.523Z,9.50
2023-02-02T01:04:24.353Z,9.50
2023-02-02T01:06:52.517Z,9.70
2023-02-02T01:09:20.665Z,9.50
2023-02-02T01:11:48.798Z,9.50
2023-02-02T01:14:17.044Z,9.50
2023-02-02T01:16:45.259Z,9.70
2023-02-02T01:19:14.623Z,9.50
2023-02-02T01:21:44.522Z,9.50
2023-02-02T01:24:12.763Z,9.60
2023-02-02T01:26:40.834Z,9.70
2023-02-02T01:29:08.911Z,9.70
2023-02-02T01:31:36.831Z,9.50
2023-02-02T01:34:04.932Z,9.50
2023-02-02T01:36:33.494Z,9.40
2023-02-02T01:39:03.065Z,9.50
2023-02-02T01:41:31.658Z,9.60
2023-02-02T01:44:01.708Z,9.50
2023-02-02T01:46:31.741Z,9.50
2023-02-02T01:49:11.106Z,9.50
2023-02-02T01:51:43.779Z,9.40
2023-02-02T01:54:17.065Z,9.50
2023-02-02T01:56:50.316Z,9.50
2023-02-02T01:59:19.771Z,9.50
2023-02-02T02:01:50.131Z,9.50
2023-02-02T02:04:18.212Z,9.40
2023-02-02T02:06:48.189Z,9.50
2023-02-02T02:09:18.436Z,9.40
2023-02-02T02:11:46.626Z,9.50
2023-02-02T02:14:33.843Z,9.50
2023-02-02T02:17:15.505Z,9.50
2023-02-02T02:20:43.738Z,9.50
2023-02-02T02:24:01.191Z,9.50
2023-02-02T02:27:11.218Z,9.50
2023-02-02T02:30:08.195Z,9.50
2023-02-02T02:32:47.493Z,9.50
2023-02-02T02:35:24.683Z,9.50
2023-02-02T02:37:58.809Z,9.50
2023-02-02T02:40:32.218Z,9.50
2023-02-02T02:43:03.764Z,9.50
2023-02-02T02:45:33.458Z,9.50
2023-02-02T02:48:04.377Z,9.60
2023-02-02T02:50:32.901Z,9.40
2023-02-02T02:53:06.064Z,9.60
2023-02-02T02:55:50.347Z,9.70
2023-02-02T02:58:23.016Z,9.50
2023-02-02T03:01:00.847Z,9.50
2023-02-02T03:03:46.484Z,9.50
2023-02-02T03:06:21.461Z,9.40
2023-02-02T03:08:53.285Z,9.50
2023-02-02T03:11:22.180Z,9.50
2023-02-02T03:13:50.604Z,9.50
2023-02-02T03:16:19.290Z,9.50
2023-02-02T03:18:49.261Z,9.50
2023-02-02T03:21:17.296Z,9.50
2023-02-02T03:23:45.314Z,9.50
2023-02-02T03:26:13.582Z,9.50
2023-02-02T03:28:42.796Z,9.50
2023-02-02T03:31:12.406Z,9.50
2023-02-02T03:33:40.533Z,9.50
2023-02-02T03:36:11.161Z,9.50
2023-02-02T03:38:39.066Z,9.50
2023-02-02T03:41:07.482Z,9.60
2023-02-02T03:43:35.498Z,9.60
2023-02-02T03:46:05.324Z,9.50
2023-02-02T03:48:36.552Z,9.50
2023-02-02T03:51:09.346Z,9.60
2023-02-02T03:53:37.334Z,9.60
2023-02-02T03:56:05.842Z,9.60
2023-02-02T03:58:33.825Z,9.50
2023-02-02T04:01:05.023Z,9.60
2023-02-02T04:03:33.387Z,9.60
2023-02-02T04:06:01.572Z,9.60
2023-02-02T04:08:31.712Z,9.70
2023-02-02T04:10:59.648Z,9.60
2023-02-02T04:13:27.674Z,9.60
2023-02-02T04:16:00.162Z,9.50
2023-02-02T04:18:28.972Z,9.60
2023-02-02T04:21:00.859Z,9.60
2023-02-02T04:23:31.643Z,9.60
2023-02-02T04:26:00.684Z,9.50
2023-02-02T04:28:29.547Z,9.60
2023-02-02T04:30:58.230Z,9.60
2023-02-02T04:33:28.031Z,9.60
2023-02-02T04:35:56.252Z,9.60
2023-02-02T04:38:24.476Z,9.70
2023-02-02T04:40:54.045Z,9.50
2023-02-02T04:43:22.109Z,9.60
2023-02-02T04:45:55.637Z,9.60
2023-02-02T04:48:23.852Z,9.60
2023-02-02T04:50:52.182Z,9.50
2023-02-02T04:53:20.161Z,9.60
2023-02-02T04:55:48.194Z,9.50
2023-02-02T04:58:17.626Z,9.50
2023-02-02T05:00:45.747Z,9.60
2023-02-02T05:03:14.167Z,9.60
2023-02-02T05:05:42.353Z,9.60
2023-02-02T05:08:12.082Z,9.80
2023-02-02T05:10:44.101Z,9.60
2023-02-02T05:13:12.009Z,9.60
2023-02-02T05:15:41.600Z,9.60
2023-02-02T05:18:09.622Z,9.60
2023-02-02T05:20:37.519Z,9.60
2023-02-02T05:23:05.603Z,9.60
2023-02-02T05:25:36.776Z,9.60
2023-02-02T05:28:04.701Z,9.50
2023-02-02T05:30:35.891Z,9.50
2023-02-02T05:33:05.256Z,9.70
2023-02-02T05:35:33.307Z,9.50
2023-02-02T05:38:01.314Z,9.40
2023-02-02T05:40:29.303Z,9.50
2023-02-02T05:42:57.425Z,9.50
2023-02-02T05:45:25.852Z,9.40
2023-02-02T05:47:55.798Z,9.60
2023-02-02T05:50:25.568Z,9.50
2023-02-02T05:52:53.949Z,9.40
2023-02-02T05:55:22.463Z,9.50
2023-02-02T05:57:51.016Z,9.50
2023-02-02T06:00:19.837Z,9.50
2023-02-02T06:02:48.228Z,9.50
2023-02-02T06:05:16.859Z,9.50
2023-02-02T06:07:46.709Z,9.50
2023-02-02T06:10:15.044Z,9.50
2023-02-02T06:12:44.314Z,9.50
2023-02-02T06:15:13.068Z,9.50
2023-02-02T06:17:41.220Z,9.50
2023-02-02T06:20:10.418Z,9.50
2023-02-02T06:22:39.132Z,9.50
2023-02-02T06:25:09.603Z,9.50
2023-02-02T06:27:39.987Z,9.50
2023-02-02T06:30:09.272Z,9.60
2023-02-02T06:32:37.688Z,9.50
2023-02-02T06:35:06.612Z,9.60
2023-02-02T06:37:35.313Z,9.60
2023-02-02T06:40:03.406Z,9.60
2023-02-02T06:42:35.996Z,9.40
2023-02-02T06:45:04.526Z,9.50
2023-02-02T06:47:34.509Z,9.50
2023-02-02T06:50:02.551Z,9.50
2023-02-02T06:52:30.655Z,9.50
2023-02-02T06:54:58.720Z,9.70
2023-02-02T06:57:27.307Z,9.50
2023-02-02T08:10:34.035Z,9.20
2023-02-02T08:13:02.005Z,9.20
2023-02-02T08:15:30.264Z,9.40
2023-02-02T08:17:59.280Z,9.30
2023-02-02T08:20:27.327Z,9.30
2023-02-02T08:22:55.718Z,9.30
2023-02-02T08:25:24.520Z,9.20
2023-02-02T08:27:58.365Z,9.20
2023-02-02T08:30:26.699Z,9.30
2023-02-02T08:32:55.154Z,9.40
2023-02-02T08:35:23.392Z,9.40
2023-02-02T08:37:51.939Z,9.40
2023-02-02T08:40:20.509Z,9.40
2023-02-02T08:42:51.236Z,9.40
2023-02-02T08:46:04.114Z,9.40
2023-02-02T08:48:19.891Z,9.50
2023-02-02T08:50:54.193Z,9.50
2023-02-02T08:53:22.998Z,9.60
2023-02-02T08:55:59.579Z,9.60
2023-02-02T08:58:27.929Z,9.50
2023-02-02T09:01:04.773Z,9.60
2023-02-02T09:03:42.250Z,9.60
2023-02-02T09:06:12.067Z,9.60
2023-02-02T09:08:41.127Z,9.60
2023-02-02T09:11:11.592Z,9.60
2023-02-02T09:13:41.103Z,9.60
2023-02-02T09:16:27.512Z,9.60
2023-02-02T09:18:56.771Z,9.70
2023-02-02T09:21:28.075Z,9.60
2023-02-02T09:23:56.872Z,9.80
2023-02-02T09:26:27.142Z,9.70
2023-02-02T09:29:17.143Z,9.70
2023-02-02T10:13:51.216Z,10.00
2023-02-02T10:16:25.828Z,10.00
2023-02-02T10:22:42.428Z,10.10
2023-02-02T10:25:44.281Z,10.10
2023-02-02T10:28:20.016Z,10.20
2023-02-02T10:30:57.798Z,10.20
2023-02-02T10:33:39.679Z,10.30
2023-02-02T10:36:31.596Z,10.30
2023-02-02T10:39:05.009Z,10.30
2023-02-02T10:41:42.630Z,10.30
2023-02-02T10:44:27.928Z,10.40
2023-02-02T10:46:59.461Z,10.30
2023-02-02T10:49:59.393Z,10.30
2023-02-02T10:52:33.165Z,10.30
2023-02-02T10:55:08.447Z,10.30
2023-02-02T10:57:50.888Z,10.40
2023-02-02T11:00:25.097Z,10.40
2023-02-02T11:02:54.548Z,10.40
2023-02-02T11:05:44.730Z,10.40
2023-02-02T11:08:15.675Z,10.40
2023-02-02T11:10:44.856Z,10.50
2023-02-02T11:13:24.112Z,10.40
2023-02-02T11:19:28.846Z,10.40
2023-02-02T11:22:00.838Z,10.40
2023-02-02T11:24:36.522Z,10.40
2023-02-02T11:27:08.233Z,10.30
2023-02-02T11:29:44.846Z,10.30
2023-02-02T11:32:31.051Z,10.30
2023-02-02T11:35:18.389Z,10.30
2023-02-02T11:38:09.622Z,10.30
2023-02-02T11:40:39.551Z,10.30
2023-02-02T11:43:18.547Z,10.30
2023-02-02T11:45:50.578Z,10.30
2023-02-02T11:48:20.311Z,10.30
2023-02-02T11:50:49.819Z,10.30
2023-02-02T11:53:29.935Z,10.30
2023-02-02T11:56:00.790Z,10.50
2023-02-02T11:58:33.142Z,10.30
2023-02-02T12:01:03.720Z,10.30
2023-02-02T12:03:37.065Z,10.30
2023-02-02T12:06:22.859Z,10.30
2023-02-02T12:08:56.488Z,10.30
2023-02-02T12:11:39.449Z,10.30
2023-02-02T12:14:19.561Z,10.30
2023-02-02T12:16:56.680Z,10.20
2023-02-02T12:19:44.649Z,10.30
2023-02-02T12:22:25.305Z,10.20
2023-02-02T12:25:00.402Z,10.20
2023-02-02T12:27:44.257Z,10.10
2023-02-02T12:30:24.803Z,10.10
2023-02-02T12:33:09.295Z,9.90
2023-02-02T12:35:55.049Z,9.70
2023-02-02T12:38:37.741Z,9.70
2023-02-02T12:41:24.635Z,9.60
2023-02-02T12:44:00.389Z,9.50
2023-02-02T12:46:48.476Z,9.40
2023-02-02T12:49:41.080Z,9.50
2023-02-02T12:52:24.487Z,9.50
2023-02-02T12:55:16.253Z,9.50
2023-02-02T12:57:58.024Z,9.50
2023-02-02T13:00:52.340Z,9.40
2023-02-02T13:03:30.563Z,9.40
2023-02-02T13:06:22.762Z,9.40
2023-02-02T13:08:58.309Z,9.40
2023-02-02T13:11:38.270Z,9.30
2023-02-02T13:14:13.701Z,9.40
2023-02-02T13:16:48.384Z,9.50
2023-02-02T13:19:29.851Z,9.40
2023-02-02T13:22:01.565Z,9.30
2023-02-02T13:24:32.778Z,9.20
2023-02-02T13:27:05.797Z,9.30
2023-02-02T13:29:47.257Z,9.20
2023-02-02T13:32:22.528Z,9.30
2023-02-02T13:34:54.962Z,9.20
2023-02-02T13:37:29.467Z,9.20
2023-02-02T13:40:00.209Z,9.20
2023-02-02T13:42:38.012Z,9.20
2023-02-02T13:45:19.974Z,9.20
2023-02-02T13:47:53.850Z,9.20
2023-02-02T13:50:30.547Z,9.10
2023-02-02T13:53:22.714Z,9.10
2023-02-02T13:56:06.453Z,9.10
2023-02-02T13:58:51.923Z,9.10
2023-02-02T14:01:22.867Z,9.10
2023-02-02T14:03:54.961Z,9.20
2023-02-02T14:06:25.547Z,9.20
2023-02-02T14:08:57.107Z,9.20
2023-02-02T14:11:29.154Z,9.20
2023-02-02T14:14:18.007Z,9.30
2023-02-02T14:16:51.343Z,9.20
2023-02-02T14:19:51.049Z,9.20
2023-02-02T14:22:22.398Z,9.30
2023-02-02T14:24:53.596Z,9.30
2023-02-02T14:27:57.789Z,9.30
2023-02-02T14:30:32.764Z,9.40
2023-02-02T14:33:34.621Z,9.40
2023-02-02T14:36:06.449Z,9.40
2023-02-02T14:38:49.902Z,9.40
2023-02-02T14:41:40.750Z,9.40
2023-02-02T14:44:08.945Z,9.40
2023-02-02T14:46:48.279Z,9.50
2023-02-02T14:49:24.039Z,9.50
2023-02-02T14:52:00.246Z,9.50
2023-02-02T14:54:49.987Z,9.50
2023-02-02T14:57:31.099Z,9.50
2023-02-02T15:00:01.470Z,9.50
2023-02-02T15:02:35.303Z,9.50
2023-02-02T15:05:46.083Z,9.50
2023-02-02T15:08:24.382Z,9.60
2023-02-02T15:11:25.063Z,9.60
2023-02-02T15:13:59.490Z,9.70
2023-02-02T15:16:31.768Z,9.70
2023-02-02T15:19:09.201Z,9.60
2023-02-02T15:21:41.766Z,9.70
2023-02-02T15:24:22.344Z,9.90
2023-02-02T15:27:02.487Z,9.80
2023-02-02T15:29:41.562Z,9.80
2023-02-02T15:32:18.374Z,9.80
2023-02-02T15:34:50.027Z,9.80
2023-02-02T15:37:23.297Z,9.90
2023-02-02T15:39:56.266Z,9.90
2023-02-02T15:42:46.591Z,9.80
2023-02-02T15:45:39.826Z,9.90
2023-02-02T15:48:24.743Z,9.80
2023-02-02T15:50:55.882Z,9.90
2023-02-02T15:53:32.343Z,9.80
2023-02-02T15:56:18.175Z,9.70
2023-02-02T15:58:49.066Z,9.80
2023-02-02T16:01:20.596Z,9.80
2023-02-02T16:03:53.332Z,9.80
2023-02-02T16:06:21.980Z,9.80
2023-02-02T16:08:51.050Z,9.80
2023-02-02T16:11:23.228Z,9.80
2023-02-02T16:14:01.541Z,9.80
2023-02-02T16:16:32.204Z,10.00
2023-02-02T16:19:06.877Z,10.00
2023-02-02T16:21:37.050Z,9.90
2023-02-02T16:24:07.394Z,9.80
2023-02-02T16:26:37.631Z,9.90
2023-02-02T16:29:06.601Z,9.90
2023-02-02T16:31:36.840Z,10.10
2023-02-02T16:34:04.938Z,9.90
2023-02-02T16:36:33.194Z,10.00
2023-02-02T16:39:01.409Z,9.90
2023-02-02T16:41:32.989Z,10.00
2023-02-02T16:44:34.680Z,10.00
2023-02-02T16:47:05.923Z,10.00
2023-02-02T16:49:34.476Z,9.90
2023-02-02T16:52:12.791Z,10.00
2023-02-02T16:54:45.295Z,10.00
2023-02-02T16:57:19.674Z,10.00
2023-02-02T16:59:51.802Z,10.20
2023-02-02T17:02:27.051Z,10.00
2023-02-02T17:04:59.730Z,10.00
2023-02-02T17:07:29.538Z,10.10
2023-02-02T17:10:14.509Z,10.00
2023-02-02T17:12:42.523Z,10.00
2023-02-02T17:15:34.878Z,10.00
2023-02-02T17:18:06.095Z,10.00
2023-02-02T17:20:34.639Z,10.10
2023-02-02T17:23:05.130Z,10.10
2023-02-02T17:25:37.917Z,10.10
2023-02-02T17:28:11.368Z,10.10
2023-02-02T17:30:41.034Z,10.10
2023-02-02T17:33:14.822Z,10.30
2023-02-02T17:35:53.698Z,10.10
2023-02-02T17:38:22.992Z,10.10
2023-02-02T17:40:51.573Z,10.00
2023-02-02T17:43:19.638Z,10.00
2023-02-02T17:45:47.898Z,10.00
2023-02-02T17:48:17.686Z,10.00
2023-02-02T17:50:45.738Z,10.20
2023-02-02T17:53:15.163Z,10.00
2023-02-02T17:55:44.470Z,10.10
2023-02-02T17:58:17.025Z,10.00
2023-02-02T18:00:46.602Z,10.00
2023-02-02T18:03:22.160Z,9.90
2023-02-02T18:05:50.678Z,10.00
2023-02-02T18:08:19.144Z,9.90
2023-02-02T18:10:47.172Z,9.90
2023-02-02T18:13:17.103Z,9.90
2023-02-02T18:15:45.504Z,9.90
2023-02-02T18:18:13.630Z,9.90
2023-02-02T18:20:44.383Z,9.90
2023-02-02T18:23:13.274Z,9.80
2023-02-02T18:25:41.898Z,9.70
2023-02-02T18:28:10.778Z,9.90
2023-02-02T18:30:39.696Z,9.90
2023-02-02T18:33:10.073Z,9.90
2023-02-02T18:35:38.123Z,9.90
2023-02-02T18:38:07.794Z,9.80
2023-02-02T18:40:36.047Z,9.90
2023-02-02T18:43:03.997Z,9.90
2023-02-02T18:45:32.682Z,9.90
2023-02-02T18:48:01.167Z,9.90
2023-02-02T18:50:30.807Z,9.90
2023-02-02T18:52:58.974Z,10.00
2023-02-02T18:55:29.194Z,9.90
2023-02-02T18:57:57.293Z,9.90
2023-02-02T19:00:25.487Z,10.00
2023-02-02T19:02:53.587Z,10.00
2023-02-02T19:05:38.850Z,10.10
2023-02-02T19:08:08.153Z,10.30
2023-02-02T19:10:37.780Z,10.30
2023-02-02T19:13:15.832Z,10.10
2023-02-02T19:15:44.127Z,10.20
2023-02-02T19:18:16.211Z,10.10
2023-02-02T19:20:45.001Z,10.20
2023-02-02T19:23:14.840Z,10.20
2023-02-02T19:26:03.289Z,10.10
2023-02-02T19:28:32.508Z,10.00
2023-02-02T19:31:02.193Z,10.20
2023-02-02T19:33:40.717Z,10.10
2023-02-02T19:36:14.381Z,10.20
2023-02-02T19:38:43.137Z,10.10
2023-02-02T19:41:19.595Z,10.20
2023-02-02T19:43:48.966Z,10.20
2023-02-02T19:46:22.164Z,10.20
2023-02-02T19:48:53.858Z,10.20
2023-02-02T19:51:36.071Z,10.20
2023-02-02T19:54:04.656Z,10.20
2023-02-02T19:56:40.800Z,10.20
2023-02-02T19:59:13.588Z,10.30
2023-02-02T20:01:45.955Z,10.20
2023-02-02T20:04:16.363Z,10.30
2023-02-02T20:06:57.940Z,10.30
2023-02-02T20:09:35.277Z,10.30
2023-02-02T20:12:19.259Z,10.30
2023-02-02T20:14:48.894Z,10.30
2023-02-02T20:17:26.499Z,10.30
2023-02-02T20:19:54.522Z,10.30
2023-02-02T20:22:26.746Z,10.30
2023-02-02T20:24:56.625Z,10.30
2023-02-02T20:27:29.439Z,10.30
2023-02-02T20:30:09.256Z,10.30
2023-02-02T20:32:42.273Z,10.30
2023-02-02T20:35:26.531Z,10.30
2023-02-02T20:37:55.751Z,10.30
2023-02-02T20:40:31.980Z,10.30
2023-02-02T20:43:01.587Z,10.30
2023-02-02T20:45:29.564Z,10.30
2023-02-02T20:47:57.769Z,10.30
2023-02-02T20:50:26.141Z,10.20
2023-02-02T20:52:55.736Z,10.30
2023-02-02T20:55:24.181Z,10.30
2023-02-02T20:57:52.859Z,10.30
2023-02-02T21:00:27.229Z,10.30
2023-02-02T21:02:56.591Z,10.30
2023-02-02T21:05:25.075Z,10.30
2023-02-02T21:07:54.931Z,10.30
2023-02-02T21:10:23.556Z,10.30
2023-02-02T21:12:52.125Z,10.30
2023-02-02T21:15:20.195Z,10.30
2023-02-02T21:17:49.835Z,10.40
2023-02-02T21:20:17.889Z,10.30
2023-02-02T21:22:48.666Z,10.30
2023-02-02T21:25:16.874Z,10.30
2023-02-02T21:27:45.000Z,10.40
2023-02-02T21:30:14.330Z,10.30
2023-02-02T21:32:42.597Z,10.30
2023-02-02T21:35:14.207Z,10.30
2023-02-02T21:37:44.323Z,10.30
2023-02-02T21:40:15.229Z,10.30
2023-02-02T21:42:49.238Z,10.30
2023-02-02T21:45:35.599Z,10.30
2023-02-02T21:48:07.219Z,10.30
2023-02-02T21:50:40.871Z,10.30
2023-02-02T21:53:20.736Z,10.30
2023-02-02T21:55:53.527Z,10.20
2023-02-02T21:58:25.475Z,10.20
2023-02-02T22:00:54.979Z,10.30
2023-02-02T22:03:28.131Z,10.30
2023-02-02T22:06:13.620Z,10.20
2023-02-02T22:08:42.317Z,10.20
2023-02-02T22:11:25.028Z,10.20
2023-02-02T22:13:55.770Z,10.20
2023-02-02T22:16:25.475Z,10.20
2023-02-02T22:18:53.856Z,10.40
2023-02-02T22:21:24.023Z,10.40
2023-02-02T22:23:52.072Z,10.30
2023-02-02T22:26:36.361Z,10.30
2023-02-02T22:29:13.746Z,10.30
2023-02-02T22:31:41.860Z,10.30
2023-02-02T22:34:10.001Z,10.30
2023-02-02T22:36:39.467Z,10.30
2023-02-02T22:39:07.682Z,10.20
2023-02-02T22:41:36.063Z,10.30
2023-02-02T22:44:04.125Z,10.30
2023-02-02T22:46:32.831Z,10.30
2023-02-02T22:49:00.944Z,10.30
2023-02-02T22:51:29.698Z,10.30
2023-02-02T22:53:59.547Z,10.30
2023-02-02T22:56:27.579Z,10.30
2023-02-02T22:58:56.109Z,10.10
2023-02-02T23:01:24.321Z,10.20
2023-02-02T23:03:52.828Z,10.20
2023-02-02T23:06:20.955Z,10.20
2023-02-02T23:08:48.903Z,10.10
2023-02-02T23:11:18.533Z,10.10
2023-02-02T23:13:46.525Z,10.10
2023-02-02T23:16:14.676Z,10.00
2023-02-02T23:18:42.858Z,10.00
2023-02-02T23:21:11.070Z,10.00
2023-02-02T23:23:39.715Z,10.10
2023-02-02T23:26:08.014Z,10.00
2023-02-02T23:28:37.539Z,10.00
2023-02-02T23:31:05.829Z,10.00
2023-02-02T23:33:34.323Z,10.00
2023-02-02T23:36:04.620Z,10.00
2023-02-02T23:38:35.605Z,10.00
2023-02-02T23:41:03.614Z,10.00
2023-02-02T23:43:31.741Z,10.00
2023-02-02T23:46:01.109Z,10.00
2023-02-02T23:48:29.458Z,10.00
2023-02-02T23:50:57.608Z,10.10
2023-02-02T23:53:26.217Z,10.00
2023-02-02T23:55:56.025Z,10.10
2023-02-02T23:58:24.040Z,10.10
